Terminal Aerodrome Forecast
Issued by NWS Quad Cities IA IL

Home | Current Version | Previous Version | Graphics & Text | Print | Product List | Glossary On
Versions: 1 2 3 4 5 6 7 8 9 10 11 12 13
000
FTUS43 KDVN 240520
TAFDBQ
TAF
KDBQ 240520Z 2406/2506 18004KT P6SM SCT200
     FM241500 17012KT P6SM SCT200
     FM241900 16015G20KT P6SM SCT200
     FM250100 16010KT P6SM BKN200=

USA.gov is the U.S. government's official web portal to all federal, state and local government web resources and services.